createdAt,value
2022-08-24T00:00:16.526Z,99.90
2022-08-24T00:02:43.682Z,99.90
2022-08-24T00:05:14.562Z,1.00
2022-08-24T00:07:42.124Z,1.00
2022-08-24T00:10:11.328Z,1.00
2022-08-24T00:12:37.989Z,1.00
2022-08-24T00:15:06.711Z,99.90
2022-08-24T00:17:34.170Z,1.00
2022-08-24T00:20:00.948Z,1.00
2022-08-24T00:22:28.978Z,1.00
2022-08-24T00:24:56.731Z,99.90
2022-08-24T00:27:23.488Z,14.20
2022-08-24T00:29:50.140Z,1.00
2022-08-24T00:32:16.773Z,1.00
2022-08-24T00:34:58.201Z,99.90
2022-08-24T00:37:26.910Z,1.00
2022-08-24T00:39:53.655Z,1.00
2022-08-24T00:42:20.366Z,1.00
2022-08-24T00:44:47.293Z,1.00
2022-08-24T00:47:34.675Z,1.00
2022-08-24T00:50:06.073Z,1.00
2022-08-24T00:52:40.376Z,99.90
2022-08-24T00:55:17.699Z,99.90
2022-08-24T00:57:49.389Z,1.00
2022-08-24T01:00:26.595Z,1.00
2022-08-24T01:02:59.410Z,1.00
2022-08-24T01:05:26.130Z,99.90
2022-08-24T01:07:53.520Z,1.00
2022-08-24T01:10:27.367Z,99.90
2022-08-24T01:13:00.948Z,1.00
2022-08-24T01:15:31.111Z,1.00
2022-08-24T01:18:18.750Z,1.00
2022-08-24T01:20:49.488Z,1.00
2022-08-24T01:23:42.403Z,1.00
2022-08-24T01:26:13.736Z,1.00
2022-08-24T01:28:45.648Z,1.00
2022-08-24T01:31:12.370Z,1.00
2022-08-24T01:33:39.425Z,1.00
2022-08-24T01:36:11.855Z,99.90
2022-08-24T01:38:38.547Z,1.00
2022-08-24T01:41:06.435Z,1.00
2022-08-24T01:43:36.957Z,1.00
2022-08-24T01:46:04.435Z,99.90
2022-08-24T01:48:31.415Z,1.00
2022-08-24T01:50:58.181Z,1.00
2022-08-24T01:53:25.531Z,1.00
2022-08-24T01:55:52.573Z,99.90
2022-08-24T01:58:19.313Z,99.90
2022-08-24T02:00:46.135Z,1.00
2022-08-24T02:03:12.925Z,85.90
2022-08-24T02:05:39.886Z,1.00
2022-08-24T02:11:55.510Z,32.20
2022-08-24T02:14:22.414Z,99.90
2022-08-24T02:16:51.925Z,1.00
2022-08-24T02:19:18.541Z,98.20
2022-08-24T02:21:45.203Z,99.90
2022-08-24T02:24:12.287Z,99.90
2022-08-24T02:26:38.941Z,99.90
2022-08-24T02:29:05.727Z,99.90
2022-08-24T02:31:33.464Z,99.90
2022-08-24T02:34:02.835Z,1.00
2022-08-24T02:36:31.171Z,33.90
2022-08-24T02:38:58.410Z,47.20
2022-08-24T02:41:25.857Z,99.90
2022-08-24T02:43:54.414Z,99.90
2022-08-24T02:46:23.764Z,99.90
2022-08-24T02:48:58.036Z,1.00
2022-08-24T02:51:41.576Z,8.90
2022-08-24T02:54:12.645Z,99.90
2022-08-24T02:56:39.636Z,99.90
2022-08-24T02:59:06.952Z,99.90
2022-08-24T03:01:33.709Z,99.90
2022-08-24T03:04:00.514Z,99.90
2022-08-24T03:06:27.250Z,99.90
2022-08-24T03:08:56.279Z,99.90
2022-08-24T03:11:28.041Z,99.90
2022-08-24T03:13:56.088Z,99.90
2022-08-24T03:16:22.937Z,99.90
2022-08-24T03:18:55.768Z,99.90
2022-08-24T03:21:22.663Z,99.90
2022-08-24T03:23:49.332Z,99.90
2022-08-24T03:26:16.403Z,1.00
2022-08-24T03:28:44.527Z,99.90
2022-08-24T03:31:12.540Z,99.90
2022-08-24T03:33:39.277Z,99.90
2022-08-24T03:36:07.074Z,99.90
2022-08-24T03:38:35.730Z,99.90
2022-08-24T03:41:02.438Z,99.90
2022-08-24T03:43:48.501Z,99.90
2022-08-24T03:46:18.162Z,99.90
2022-08-24T03:48:45.013Z,99.90
2022-08-24T03:51:14.379Z,99.90
2022-08-24T03:53:42.961Z,99.90
2022-08-24T03:56:11.186Z,99.90
2022-08-24T03:58:41.611Z,99.90
2022-08-24T04:01:09.057Z,99.90
2022-08-24T04:03:37.550Z,99.90
2022-08-24T04:06:05.622Z,99.90
2022-08-24T04:08:33.557Z,99.90
2022-08-24T04:11:01.441Z,99.90
2022-08-24T04:13:31.892Z,99.90
2022-08-24T04:16:04.718Z,99.90
2022-08-24T04:18:31.607Z,99.90
2022-08-24T04:20:58.505Z,99.90
2022-08-24T04:23:29.016Z,99.90
2022-08-24T04:26:12.619Z,99.90
2022-08-24T04:28:39.266Z,99.90
2022-08-24T04:31:07.037Z,99.90
2022-08-24T04:33:34.351Z,99.90
2022-08-24T04:36:01.141Z,99.90
2022-08-24T04:38:28.495Z,99.90
2022-08-24T04:40:55.237Z,99.90
2022-08-24T04:43:26.913Z,99.90
2022-08-24T04:45:53.646Z,99.90
2022-08-24T04:48:20.385Z,99.90
2022-08-24T04:50:47.051Z,99.90
2022-08-24T04:53:14.309Z,99.90
2022-08-24T04:55:47.399Z,99.90
2022-08-24T04:58:15.784Z,99.90
2022-08-24T05:00:43.672Z,99.90
2022-08-24T05:03:11.313Z,99.90
2022-08-24T05:05:46.323Z,99.90
2022-08-24T05:08:13.938Z,99.90
2022-08-24T05:10:43.103Z,99.90
2022-08-24T05:13:10.282Z,1.00
2022-08-24T05:15:44.246Z,1.00
2022-08-24T05:18:11.925Z,1.00
2022-08-24T05:20:47.892Z,1.00
2022-08-24T05:23:14.634Z,1.00
2022-08-24T05:25:42.159Z,99.90
2022-08-24T05:28:09.474Z,99.90
2022-08-24T05:30:40.586Z,99.90
2022-08-24T05:33:09.583Z,99.90
2022-08-24T05:35:41.754Z,99.90
2022-08-24T05:38:11.087Z,99.90
2022-08-24T05:40:37.782Z,99.90
2022-08-24T05:43:05.046Z,99.90
2022-08-24T05:45:31.886Z,99.90
2022-08-24T05:47:58.523Z,99.90
2022-08-24T05:50:25.180Z,76.60
2022-08-24T05:52:51.812Z,99.90
2022-08-24T05:55:19.404Z,1.00
2022-08-24T05:57:46.074Z,99.90
2022-08-24T06:00:13.876Z,1.00
2022-08-24T06:02:40.761Z,1.00
2022-08-24T06:05:08.318Z,1.00
2022-08-24T06:07:35.081Z,1.00
2022-08-24T06:10:20.134Z,99.90
2022-08-24T06:12:48.586Z,99.90
2022-08-24T06:15:15.569Z,99.90
2022-08-24T06:17:42.288Z,91.10
2022-08-24T06:20:09.682Z,1.00
2022-08-24T06:22:36.472Z,31.40
2022-08-24T06:25:22.282Z,1.00
2022-08-24T06:27:48.910Z,99.90
2022-08-24T06:30:15.792Z,1.00
2022-08-24T06:32:44.055Z,1.00
2022-08-24T06:35:11.391Z,1.00
2022-08-24T06:37:38.240Z,99.90
2022-08-24T06:40:05.740Z,99.90
2022-08-24T06:42:34.132Z,99.90
2022-08-24T06:45:00.775Z,99.90
2022-08-24T06:47:27.645Z,99.90
2022-08-24T06:49:54.443Z,83.00
2022-08-24T06:52:21.397Z,64.50
2022-08-24T06:54:48.045Z,57.30
2022-08-24T06:57:14.784Z,41.10
2022-08-24T06:59:43.033Z,30.60
2022-08-24T07:02:10.300Z,30.70
2022-08-24T07:04:37.222Z,38.50
2022-08-24T07:07:03.951Z,35.20
2022-08-24T07:09:33.486Z,28.40
2022-08-24T07:12:00.546Z,26.90
2022-08-24T07:14:27.414Z,18.00
2022-08-24T07:16:54.184Z,13.80
2022-08-24T07:19:21.036Z,13.60
2022-08-24T07:21:47.859Z,6.90
2022-08-24T07:24:15.152Z,4.30
2022-08-24T07:26:42.910Z,4.50
2022-08-24T07:29:43.650Z,1.00
2022-08-24T07:32:02.025Z,1.00
2022-08-24T07:34:29.193Z,1.00
2022-08-24T07:36:55.912Z,1.00
2022-08-24T07:39:22.868Z,1.00
2022-08-24T07:42:12.049Z,1.00
2022-08-24T07:44:37.617Z,1.00
2022-08-24T07:47:27.200Z,1.00
2022-08-24T07:49:51.493Z,1.00
2022-08-24T07:52:18.141Z,1.00
2022-08-24T07:54:44.938Z,1.00
2022-08-24T07:57:11.690Z,1.00
2022-08-24T07:59:38.394Z,1.00
2022-08-24T08:02:05.517Z,1.00
2022-08-24T08:04:32.230Z,1.00
2022-08-24T08:07:00.814Z,1.00
2022-08-24T08:09:28.396Z,1.00
2022-08-24T08:11:55.215Z,1.00
2022-08-24T08:14:21.873Z,1.00
2022-08-24T08:16:48.491Z,1.00
2022-08-24T08:19:15.315Z,1.00
2022-08-24T08:22:02.781Z,1.00
2022-08-24T08:24:29.477Z,1.00
2022-08-24T08:26:57.731Z,1.00
2022-08-24T08:29:25.209Z,1.00
2022-08-24T08:31:52.540Z,1.00
2022-08-24T08:34:19.481Z,1.00
2022-08-24T08:36:47.034Z,1.00
2022-08-24T08:39:16.457Z,1.00
2022-08-24T08:41:51.985Z,1.00
2022-08-24T08:44:21.945Z,1.00
2022-08-24T08:47:05.388Z,1.00
2022-08-24T08:50:06.262Z,1.00
2022-08-24T08:53:10.693Z,1.00
2022-08-24T08:56:04.742Z,1.00
2022-08-24T08:58:37.372Z,1.00
2022-08-24T09:01:13.925Z,1.00
2022-08-24T09:04:21.432Z,1.00
2022-08-24T09:07:17.202Z,1.00
2022-08-24T09:10:22.067Z,1.00
2022-08-24T09:13:26.788Z,1.00
2022-08-24T09:16:16.856Z,1.00
2022-08-24T09:19:03.259Z,1.00
2022-08-24T09:21:55.325Z,1.00
2022-08-24T09:24:54.056Z,1.00
2022-08-24T09:27:23.777Z,1.00
2022-08-24T09:30:05.954Z,1.00
2022-08-24T09:32:51.696Z,1.00
2022-08-24T09:35:35.487Z,1.00
2022-08-24T09:38:24.518Z,1.00
2022-08-24T09:41:12.990Z,1.00
2022-08-24T09:44:03.327Z,1.00
2022-08-24T09:46:48.393Z,1.00
2022-08-24T09:49:46.291Z,1.00
2022-08-24T09:52:49.858Z,1.00
2022-08-24T09:56:00.791Z,1.00
2022-08-24T09:58:39.674Z,1.00
2022-08-24T10:01:16.198Z,1.00
2022-08-24T10:04:09.897Z,1.00
2022-08-24T10:07:09.749Z,1.00
2022-08-24T10:10:03.433Z,1.00
2022-08-24T10:12:55.534Z,1.00
2022-08-24T10:15:36.267Z,1.00
2022-08-24T10:18:35.150Z,1.00
2022-08-24T10:21:31.830Z,1.00
2022-08-24T10:24:29.648Z,1.00
2022-08-24T10:26:56.510Z,1.00
2022-08-24T10:29:52.210Z,1.00
2022-08-24T10:32:45.518Z,1.00
2022-08-24T10:35:17.050Z,1.00
2022-08-24T10:38:27.022Z,1.00
2022-08-24T10:41:29.990Z,1.00
2022-08-24T10:44:19.455Z,1.00
2022-08-24T10:46:55.466Z,1.00
2022-08-24T10:49:37.567Z,1.00
2022-08-24T10:52:40.779Z,1.00
2022-08-24T10:55:21.370Z,1.00
2022-08-24T10:58:19.006Z,1.00
2022-08-24T11:00:46.014Z,1.00
2022-08-24T11:03:21.315Z,1.00
2022-08-24T11:05:56.721Z,1.00
2022-08-24T11:08:27.151Z,1.00
2022-08-24T11:11:13.478Z,1.00
2022-08-24T11:14:01.482Z,1.00
2022-08-24T11:16:41.063Z,1.00
2022-08-24T11:19:27.481Z,1.00
2022-08-24T11:21:56.731Z,1.00
2022-08-24T11:24:24.314Z,1.00
2022-08-24T11:27:07.801Z,1.00
2022-08-24T11:29:49.772Z,1.00
2022-08-24T11:32:42.540Z,1.00
2022-08-24T11:35:22.144Z,1.00
2022-08-24T11:37:51.643Z,1.00
2022-08-24T11:40:21.704Z,1.00
2022-08-24T11:43:10.198Z,1.00
2022-08-24T11:45:51.251Z,1.00
2022-08-24T11:48:27.219Z,1.00
2022-08-24T11:51:10.138Z,1.00
2022-08-24T11:53:59.558Z,1.00
2022-08-24T11:56:42.188Z,1.00
2022-08-24T11:59:32.176Z,1.00
2022-08-24T12:02:09.937Z,1.00
2022-08-24T12:04:58.748Z,1.00
2022-08-24T12:07:31.543Z,1.00
2022-08-24T12:10:08.986Z,1.00
2022-08-24T12:12:41.530Z,1.00
2022-08-24T12:15:29.841Z,1.00
2022-08-24T12:18:05.301Z,1.00
2022-08-24T12:20:38.805Z,1.00
2022-08-24T12:23:23.447Z,1.00
2022-08-24T12:26:13.807Z,1.00
2022-08-24T12:28:46.022Z,1.00
2022-08-24T12:31:27.436Z,1.00
2022-08-24T12:33:57.894Z,1.00
2022-08-24T12:37:15.353Z,1.00
2022-08-24T12:39:50.175Z,1.00
2022-08-24T12:42:23.557Z,1.00
2022-08-24T12:44:58.738Z,1.00
2022-08-24T12:47:56.349Z,1.00
2022-08-24T12:51:06.571Z,1.00
2022-08-24T12:53:36.002Z,1.00
2022-08-24T12:56:18.387Z,1.00
2022-08-24T12:58:56.750Z,1.00
2022-08-24T13:01:29.486Z,1.00
2022-08-24T13:04:34.319Z,1.00
2022-08-24T13:07:11.850Z,1.00
2022-08-24T13:09:47.969Z,1.00
2022-08-24T13:12:42.779Z,1.00
2022-08-24T13:15:28.433Z,1.00
2022-08-24T13:18:02.670Z,1.00
2022-08-24T13:20:36.279Z,1.00
2022-08-24T13:23:12.168Z,1.00
2022-08-24T13:25:47.888Z,1.00
2022-08-24T13:28:20.944Z,1.00
2022-08-24T13:30:53.808Z,1.00
2022-08-24T13:33:47.492Z,1.00
2022-08-24T13:36:29.517Z,1.00
2022-08-24T13:39:04.239Z,1.00
2022-08-24T13:41:49.563Z,1.00
2022-08-24T13:44:58.559Z,1.00
2022-08-24T13:47:33.544Z,1.00
2022-08-24T13:50:45.453Z,1.00
2022-08-24T13:53:37.067Z,1.00
2022-08-24T13:56:32.452Z,1.00
2022-08-24T13:59:26.122Z,1.00
2022-08-24T14:02:25.739Z,1.00
2022-08-24T14:05:03.581Z,1.00
2022-08-24T14:07:53.436Z,1.00
2022-08-24T14:10:42.899Z,1.00
2022-08-24T14:13:47.835Z,1.00
2022-08-24T14:17:02.801Z,1.00
2022-08-24T14:19:55.469Z,1.00
2022-08-24T14:22:32.102Z,1.00
2022-08-24T14:25:17.541Z,1.00
2022-08-24T14:28:30.285Z,1.00
2022-08-24T14:31:16.829Z,1.00
2022-08-24T14:34:02.407Z,1.00
2022-08-24T14:36:57.627Z,1.00
2022-08-24T14:39:35.884Z,1.00
2022-08-24T14:42:33.002Z,1.00
2022-08-24T14:45:22.507Z,1.00
2022-08-24T14:48:18.189Z,1.00
2022-08-24T14:50:56.698Z,1.00
2022-08-24T14:53:57.889Z,1.00
2022-08-24T14:56:58.831Z,1.00
2022-08-24T14:59:53.732Z,1.00
2022-08-24T15:02:29.511Z,1.00
2022-08-24T15:05:16.417Z,1.00
2022-08-24T15:07:54.571Z,1.00
2022-08-24T15:10:26.273Z,1.00
2022-08-24T15:13:03.617Z,1.00
2022-08-24T15:15:57.728Z,1.00
2022-08-24T15:18:24.598Z,1.00
2022-08-24T15:21:26.452Z,1.00
2022-08-24T15:24:19.089Z,1.00
2022-08-24T15:26:54.898Z,1.00
2022-08-24T15:29:31.349Z,1.00
2022-08-24T15:32:11.571Z,1.00
2022-08-24T15:34:49.747Z,1.00
2022-08-24T15:37:31.271Z,1.00
2022-08-24T15:39:59.064Z,1.00
2022-08-24T15:42:28.737Z,1.00
2022-08-24T15:45:00.608Z,1.00
2022-08-24T15:47:36.143Z,1.00
2022-08-24T15:50:07.646Z,1.00
2022-08-24T15:53:01.365Z,1.00
2022-08-24T15:55:31.810Z,1.00
2022-08-24T15:58:26.831Z,1.00
2022-08-24T16:01:37.268Z,1.00
2022-08-24T16:04:11.788Z,1.00
2022-08-24T16:06:45.255Z,1.00
2022-08-24T16:09:20.981Z,1.00
2022-08-24T16:11:58.653Z,1.00
2022-08-24T16:14:46.904Z,1.00
2022-08-24T16:17:34.734Z,1.00
2022-08-24T16:20:11.359Z,1.00
2022-08-24T16:22:52.715Z,1.00
2022-08-24T16:25:49.197Z,1.00
2022-08-24T16:28:26.674Z,1.00
2022-08-24T16:30:58.641Z,1.00
2022-08-24T16:33:31.227Z,1.00
2022-08-24T16:35:59.514Z,1.00
2022-08-24T16:38:27.766Z,1.00
2022-08-24T16:40:57.006Z,1.00
2022-08-24T16:43:23.739Z,1.00
2022-08-24T16:45:50.510Z,1.00
2022-08-24T16:48:17.156Z,1.00
2022-08-24T16:50:46.212Z,1.00
2022-08-24T16:53:15.950Z,1.00
2022-08-24T16:55:42.602Z,1.00
2022-08-24T16:58:09.544Z,1.00
2022-08-24T17:00:37.028Z,1.00
2022-08-24T17:03:03.765Z,1.00
2022-08-24T17:05:30.486Z,1.00
2022-08-24T17:07:59.405Z,1.00
2022-08-24T17:10:27.500Z,1.00
2022-08-24T17:12:54.461Z,1.00
2022-08-24T17:15:21.663Z,1.00
2022-08-24T17:18:07.384Z,1.00
2022-08-24T17:20:34.319Z,1.00
2022-08-24T17:23:01.452Z,1.00
2022-08-24T17:25:30.144Z,1.00
2022-08-24T17:27:58.553Z,1.00
2022-08-24T17:30:30.118Z,1.00
2022-08-24T17:32:58.290Z,1.00
2022-08-24T17:35:25.492Z,1.00
2022-08-24T17:37:52.920Z,1.00
2022-08-24T17:40:24.476Z,1.00
2022-08-24T17:42:51.893Z,1.00
2022-08-24T17:45:21.230Z,1.00
2022-08-24T17:47:48.154Z,1.00
2022-08-24T17:50:16.426Z,1.00
2022-08-24T17:52:43.797Z,1.00
2022-08-24T17:55:12.843Z,1.00
2022-08-24T17:57:40.234Z,1.00
2022-08-24T18:00:09.899Z,1.00
2022-08-24T18:02:36.741Z,1.00
2022-08-24T18:05:03.716Z,1.00
2022-08-24T18:07:51.780Z,1.00
2022-08-24T18:10:20.886Z,1.00
2022-08-24T18:12:47.729Z,1.00
2022-08-24T18:15:14.406Z,1.00
2022-08-24T18:17:48.076Z,1.00
2022-08-24T18:20:20.911Z,1.00
2022-08-24T18:22:50.702Z,1.00
2022-08-24T18:25:22.889Z,1.00
2022-08-24T18:27:53.255Z,1.00
2022-08-24T18:30:30.600Z,1.00
2022-08-24T18:32:59.889Z,1.00
2022-08-24T18:35:26.681Z,1.00
2022-08-24T18:37:53.353Z,1.00
2022-08-24T18:40:21.619Z,1.00
2022-08-24T18:42:50.623Z,1.00
2022-08-24T18:45:29.565Z,1.00
2022-08-24T18:47:56.420Z,1.00
2022-08-24T18:50:24.139Z,1.00
2022-08-24T18:52:50.887Z,1.00
2022-08-24T18:55:18.365Z,1.00
2022-08-24T18:57:45.301Z,1.00
2022-08-24T19:00:12.814Z,1.00
2022-08-24T19:02:40.683Z,1.00
2022-08-24T19:05:10.110Z,1.00
2022-08-24T19:07:39.880Z,1.00
2022-08-24T19:10:10.157Z,1.00
2022-08-24T19:12:46.608Z,1.00
2022-08-24T19:15:34.525Z,1.00
2022-08-24T19:18:01.617Z,1.00
2022-08-24T19:20:28.649Z,1.00
2022-08-24T19:23:04.976Z,1.00
2022-08-24T19:25:32.074Z,1.00
2022-08-24T19:27:58.983Z,1.00
2022-08-24T19:30:27.950Z,1.00
2022-08-24T19:32:58.426Z,1.00
2022-08-24T19:35:25.227Z,1.00
2022-08-24T19:37:52.015Z,1.00
2022-08-24T19:40:21.003Z,1.00
2022-08-24T19:42:50.979Z,1.00
2022-08-24T19:45:51.963Z,1.00
2022-08-24T19:48:18.684Z,1.00
2022-08-24T19:50:45.397Z,1.00
2022-08-24T19:53:12.493Z,1.00
2022-08-24T19:55:39.171Z,1.00
2022-08-24T19:58:15.970Z,1.00
2022-08-24T20:00:49.185Z,1.00
2022-08-24T20:03:18.594Z,1.00
2022-08-24T20:05:45.711Z,1.00
2022-08-24T20:08:12.793Z,1.00
2022-08-24T20:10:39.663Z,1.00
2022-08-24T20:13:07.086Z,1.00
2022-08-24T20:15:34.539Z,1.00
2022-08-24T20:18:01.694Z,1.00
2022-08-24T20:20:30.032Z,1.00
2022-08-24T20:23:00.720Z,1.00
2022-08-24T20:25:27.451Z,1.00
2022-08-24T20:28:06.939Z,1.00
2022-08-24T20:30:42.007Z,1.00
2022-08-24T20:33:16.996Z,1.00
2022-08-24T20:35:49.792Z,1.00
2022-08-24T20:38:19.055Z,1.00
2022-08-24T20:40:46.610Z,1.00
2022-08-24T20:43:13.993Z,1.00
2022-08-24T20:45:41.643Z,1.90
2022-08-24T20:48:11.930Z,7.30
2022-08-24T20:50:41.804Z,44.80
2022-08-24T20:53:11.197Z,65.10
2022-08-24T20:55:41.572Z,99.90
2022-08-24T20:58:09.746Z,99.90
2022-08-24T21:00:40.718Z,99.90
2022-08-24T21:03:07.550Z,99.90
2022-08-24T21:05:34.342Z,99.90
2022-08-24T21:08:01.192Z,99.90
2022-08-24T21:10:27.877Z,99.90
2022-08-24T21:12:55.258Z,99.90
2022-08-24T21:15:23.235Z,99.90
2022-08-24T21:17:50.585Z,99.90
2022-08-24T21:20:18.198Z,99.90
2022-08-24T21:22:46.158Z,99.90
2022-08-24T21:25:14.431Z,99.90
2022-08-24T21:27:43.890Z,99.90
2022-08-24T21:30:15.984Z,99.90
2022-08-24T21:33:01.293Z,99.90
2022-08-24T21:35:27.939Z,99.90
2022-08-24T21:37:55.181Z,99.90
2022-08-24T21:40:23.269Z,1.00
2022-08-24T21:42:50.145Z,1.00
2022-08-24T21:45:18.680Z,1.00
2022-08-24T21:47:45.473Z,1.00
2022-08-24T21:50:13.913Z,1.00
2022-08-24T21:52:41.562Z,99.90
2022-08-24T21:55:14.183Z,1.00
2022-08-24T21:57:41.603Z,99.90
2022-08-24T22:00:14.278Z,99.90
2022-08-24T22:02:41.808Z,99.90
2022-08-24T22:05:09.183Z,1.00
2022-08-24T22:07:36.637Z,1.00
2022-08-24T22:10:04.250Z,1.00
2022-08-24T22:12:30.893Z,1.00
2022-08-24T22:14:57.548Z,70.80
2022-08-24T22:17:24.177Z,67.40
2022-08-24T22:19:50.826Z,99.90
2022-08-24T22:22:17.879Z,1.00
2022-08-24T22:24:44.539Z,90.10
2022-08-24T22:27:11.174Z,99.90
2022-08-24T22:29:37.778Z,1.00
2022-08-24T22:32:05.530Z,99.90
2022-08-24T22:34:32.355Z,1.00
2022-08-24T22:37:00.970Z,99.90
2022-08-24T22:39:27.565Z,99.90
2022-08-24T22:41:54.447Z,99.90
2022-08-24T22:44:21.562Z,99.90
2022-08-24T22:47:00.863Z,99.90
2022-08-24T22:49:30.216Z,26.50
2022-08-24T22:51:57.329Z,1.00
2022-08-24T22:54:25.397Z,99.90
2022-08-24T22:56:53.938Z,1.00
2022-08-24T22:59:23.614Z,45.10
2022-08-24T23:01:52.380Z,99.90
2022-08-24T23:04:23.351Z,99.90
2022-08-24T23:06:50.574Z,99.90
2022-08-24T23:09:17.365Z,99.90
2022-08-24T23:11:45.200Z,99.90
2022-08-24T23:14:13.361Z,99.90
2022-08-24T23:16:44.868Z,99.90
2022-08-24T23:19:30.167Z,1.00
2022-08-24T23:21:56.825Z,96.80
2022-08-24T23:24:23.480Z,77.10
2022-08-24T23:26:50.136Z,1.00
2022-08-24T23:29:17.328Z,99.90
2022-08-24T23:31:45.817Z,94.70
2022-08-24T23:34:12.609Z,30.00
2022-08-24T23:36:40.100Z,95.00
2022-08-24T23:39:08.596Z,1.00
2022-08-24T23:41:38.246Z,99.90
2022-08-24T23:44:09.718Z,1.00
2022-08-24T23:46:37.376Z,63.20
2022-08-24T23:49:04.930Z,99.90
2022-08-24T23:51:32.085Z,7.60
2022-08-24T23:53:59.035Z,99.90
2022-08-24T23:56:32.392Z,1.00
2022-08-24T23:59:01.930Z,1.00
